createdAt,value
2023-04-05T00:00:15.677Z,7.77
2023-04-05T00:03:00.703Z,7.50
2023-04-05T00:05:31.559Z,7.03
2023-04-05T00:08:01.764Z,6.90
2023-04-05T00:10:31.123Z,6.93
2023-04-05T00:13:00.156Z,7.60
2023-04-05T00:15:31.451Z,6.47
2023-04-05T00:18:00.351Z,6.57
2023-04-05T00:20:29.542Z,6.60
2023-04-05T00:22:57.999Z,6.60
2023-04-05T00:25:26.530Z,6.57
2023-04-05T00:27:55.070Z,6.37
2023-04-05T00:30:40.798Z,5.83
2023-04-05T00:33:09.528Z,5.77
2023-04-05T00:35:38.147Z,5.50
2023-04-05T00:38:06.892Z,5.33
2023-04-05T00:40:35.746Z,5.10
2023-04-05T00:43:04.234Z,4.87
2023-04-05T00:45:33.123Z,4.87
2023-04-05T00:48:03.201Z,4.57
2023-04-05T00:50:31.763Z,4.87
2023-04-05T00:53:00.354Z,4.27
2023-04-05T00:55:29.611Z,4.53
2023-04-05T00:57:58.101Z,4.43
2023-04-05T01:00:26.991Z,4.70
2023-04-05T01:03:01.951Z,4.90
2023-04-05T01:05:41.928Z,4.20
2023-04-05T01:08:23.239Z,4.00
2023-04-05T01:10:58.364Z,4.33
2023-04-05T01:13:30.193Z,4.53
2023-04-05T01:15:58.909Z,4.30
2023-04-05T01:18:31.163Z,4.67
2023-04-05T01:21:23.259Z,3.90
2023-04-05T01:24:09.834Z,4.13
2023-04-05T01:27:07.899Z,3.77
2023-04-05T01:30:06.007Z,3.53
2023-04-05T01:33:00.619Z,4.00
2023-04-05T01:35:41.318Z,3.73
2023-04-05T01:38:14.368Z,3.43
2023-04-05T01:40:43.861Z,4.40
2023-04-05T01:43:16.342Z,4.23
2023-04-05T01:45:50.365Z,4.47
2023-04-05T01:48:18.910Z,4.60
2023-04-05T01:51:12.471Z,4.30
2023-04-05T01:53:41.585Z,3.87
2023-04-05T01:56:35.289Z,3.73
2023-04-05T01:59:03.796Z,4.27
2023-04-05T02:01:58.820Z,3.87
2023-04-05T02:04:27.284Z,4.17
2023-04-05T02:07:21.273Z,4.00
2023-04-05T02:09:49.775Z,3.50
2023-04-05T02:12:18.219Z,3.97
2023-04-05T02:14:46.729Z,3.83
2023-04-05T02:17:17.953Z,4.10
2023-04-05T02:19:47.498Z,4.17
2023-04-05T02:22:15.984Z,4.00
2023-04-05T02:24:44.512Z,4.47
2023-04-05T02:27:13.115Z,4.43
2023-04-05T02:29:41.766Z,4.10
2023-04-05T02:32:36.166Z,4.20
2023-04-05T02:35:05.080Z,4.27
2023-04-05T02:37:33.543Z,4.57
2023-04-05T02:40:02.310Z,4.07
2023-04-05T02:42:30.846Z,4.23
2023-04-05T02:44:59.302Z,4.40
2023-04-05T02:47:27.754Z,4.87
2023-04-05T02:49:57.617Z,5.03
2023-04-05T02:52:26.008Z,4.80
2023-04-05T02:54:54.452Z,4.63
2023-04-05T02:57:29.077Z,4.60
2023-04-05T02:59:57.689Z,4.33
2023-04-05T03:02:26.185Z,5.00
2023-04-05T03:04:54.595Z,3.93
2023-04-05T03:07:25.864Z,4.93
2023-04-05T03:09:54.452Z,4.67
2023-04-05T03:12:22.997Z,4.43
2023-04-05T03:14:51.433Z,4.30
2023-04-05T03:17:19.970Z,4.57
2023-04-05T03:19:48.527Z,4.23
2023-04-05T03:22:17.175Z,4.13
2023-04-05T03:24:47.501Z,3.93
2023-04-05T03:27:16.039Z,4.63
2023-04-05T03:29:44.451Z,4.43
2023-04-05T03:32:14.033Z,5.83
2023-04-05T03:34:42.564Z,6.10
2023-04-05T03:37:11.115Z,5.50
2023-04-05T03:39:40.137Z,4.33
2023-04-05T03:42:09.979Z,3.40
2023-04-05T03:44:38.481Z,3.73
2023-04-05T03:47:07.089Z,4.90
2023-04-05T03:49:35.632Z,6.57
2023-04-05T03:52:04.218Z,9.77
2023-04-05T03:54:32.647Z,5.37
2023-04-05T03:57:01.250Z,4.77
2023-04-05T03:59:31.299Z,3.47
2023-04-05T04:01:59.835Z,4.17
2023-04-05T04:04:28.487Z,3.40
2023-04-05T04:06:57.308Z,3.67
2023-04-05T04:09:28.083Z,3.73
2023-04-05T04:11:57.998Z,3.60
2023-04-05T04:14:26.516Z,3.70
2023-04-05T04:16:56.257Z,3.53
2023-04-05T04:19:24.718Z,3.43
2023-04-05T04:21:53.192Z,2.70
2023-04-05T04:24:21.932Z,2.70
2023-04-05T04:26:50.812Z,2.30
2023-04-05T04:29:19.244Z,2.50
2023-04-05T04:31:49.691Z,2.40
2023-04-05T04:34:21.224Z,2.20
2023-04-05T04:37:00.816Z,4.23
2023-04-05T04:39:31.514Z,5.30
2023-04-05T04:42:01.492Z,2.80
2023-04-05T04:44:31.476Z,2.40
2023-04-05T04:47:25.497Z,5.03
2023-04-05T04:49:57.402Z,2.40
2023-04-05T04:52:25.869Z,2.17
2023-04-05T04:54:54.284Z,2.90
2023-04-05T04:57:22.763Z,2.37
2023-04-05T04:59:51.500Z,2.40
2023-04-05T05:02:24.288Z,2.30
2023-04-05T05:04:54.233Z,3.13
2023-04-05T05:07:23.082Z,2.30
2023-04-05T05:12:57.376Z,2.07
2023-04-05T05:15:25.823Z,1.80
2023-04-05T05:17:56.343Z,2.70
2023-04-05T05:20:28.562Z,2.20
2023-04-05T05:22:57.456Z,2.30
2023-04-05T05:25:26.181Z,2.20
2023-04-05T05:27:54.578Z,2.40
2023-04-05T05:30:23.065Z,2.83
2023-04-05T05:32:52.951Z,2.00
2023-04-05T05:35:21.669Z,2.40
2023-04-05T05:37:52.612Z,2.67
2023-04-05T05:40:21.163Z,2.30
2023-04-05T05:42:49.706Z,2.50
2023-04-05T05:45:18.312Z,2.80
2023-04-05T05:47:46.822Z,2.27
2023-04-05T05:50:17.194Z,3.10
2023-04-05T05:52:45.714Z,13.73
2023-04-05T05:55:15.706Z,20.60
2023-04-05T05:57:44.196Z,3.90
2023-04-05T06:00:14.392Z,2.60
2023-04-05T06:02:43.197Z,2.90
2023-04-05T06:05:11.945Z,3.20
2023-04-05T06:07:40.681Z,3.33
2023-04-05T06:10:12.539Z,2.20
2023-04-05T06:12:42.453Z,2.30
2023-04-05T06:15:12.075Z,2.40
2023-04-05T06:17:42.663Z,1.80
2023-04-05T06:20:12.318Z,2.80
2023-04-05T06:22:41.573Z,2.60
2023-04-05T06:25:35.448Z,2.60
2023-04-05T06:28:07.096Z,3.93
2023-04-05T06:30:36.007Z,3.10
2023-04-05T06:33:04.774Z,2.80
2023-04-05T06:35:34.078Z,2.50
2023-04-05T06:38:02.670Z,2.50
2023-04-05T06:40:31.218Z,2.53
2023-04-05T06:42:59.756Z,3.07
2023-04-05T06:45:29.716Z,2.40
2023-04-05T06:47:58.309Z,2.33
2023-04-05T06:50:27.045Z,2.10
2023-04-05T06:52:55.546Z,4.73
2023-04-05T06:55:24.044Z,3.60
2023-04-05T06:57:52.708Z,4.90
2023-04-05T07:00:21.871Z,6.07
2023-04-05T07:02:51.972Z,4.57
2023-04-05T07:05:20.636Z,5.10
2023-04-05T07:07:49.088Z,4.40
2023-04-05T07:10:17.679Z,4.20
2023-04-05T07:12:47.699Z,4.37
2023-04-05T07:15:16.577Z,2.50
2023-04-05T07:17:45.145Z,2.90
2023-04-05T07:20:16.375Z,2.53
2023-04-05T07:22:44.923Z,3.90
2023-04-05T07:25:13.469Z,2.67
2023-04-05T07:28:01.199Z,2.30
2023-04-05T07:30:31.861Z,2.53
2023-04-05T07:33:09.532Z,3.20
2023-04-05T07:35:39.678Z,1.80
2023-04-05T07:38:08.216Z,2.60
2023-04-05T07:41:02.167Z,2.00
2023-04-05T07:43:32.723Z,2.60
2023-04-05T07:46:04.720Z,2.33
2023-04-05T07:48:33.343Z,1.73
2023-04-05T07:51:08.352Z,2.30
2023-04-05T07:53:38.472Z,2.00
2023-04-05T07:56:08.709Z,2.70
2023-04-05T07:58:55.591Z,2.77
2023-04-05T08:01:27.791Z,2.17
2023-04-05T08:03:58.261Z,3.07
2023-04-05T08:06:28.276Z,3.33
2023-04-05T08:08:56.850Z,3.57
2023-04-05T08:11:26.169Z,3.40
2023-04-05T08:14:02.744Z,2.70
2023-04-05T08:16:31.454Z,3.47
2023-04-05T08:18:59.886Z,4.20
2023-04-05T08:22:19.358Z,2.70
2023-04-05T08:24:47.884Z,4.57
2023-04-05T08:27:17.048Z,3.77
2023-04-05T08:29:45.536Z,3.77
2023-04-05T08:32:14.159Z,4.60
2023-04-05T08:34:42.693Z,2.97
2023-04-05T08:37:11.186Z,2.70
2023-04-05T08:39:41.113Z,4.57
2023-04-05T08:42:18.658Z,4.50
2023-04-05T08:44:53.528Z,2.97
2023-04-05T08:47:24.727Z,2.20
2023-04-05T08:49:53.572Z,2.73
2023-04-05T08:52:22.209Z,3.07
2023-04-05T08:54:55.162Z,2.10
2023-04-05T08:57:30.156Z,3.00
2023-04-05T09:00:02.529Z,3.70
2023-04-05T09:02:59.186Z,2.40
2023-04-05T09:05:28.444Z,4.43
2023-04-05T09:07:59.629Z,2.23
2023-04-05T09:10:31.205Z,2.33
2023-04-05T09:16:08.867Z,2.50
2023-04-05T09:18:37.551Z,2.10
2023-04-05T09:21:07.578Z,2.00
2023-04-05T09:23:36.444Z,2.43
2023-04-05T09:26:36.229Z,2.93
2023-04-05T09:29:04.876Z,2.30
2023-04-05T09:31:35.704Z,2.10
2023-04-05T09:34:06.230Z,2.40
2023-04-05T09:36:36.050Z,2.43
2023-04-05T09:39:10.032Z,2.50
2023-04-05T09:41:40.018Z,2.80
2023-04-05T09:44:08.525Z,2.97
2023-04-05T09:46:38.689Z,3.10
2023-04-05T09:49:10.314Z,3.80
2023-04-05T09:51:40.114Z,3.27
2023-04-05T09:54:10.733Z,4.03
2023-04-05T09:56:54.684Z,3.30
2023-04-05T09:59:23.613Z,4.00
2023-04-05T10:01:53.621Z,3.57
2023-04-05T10:04:23.196Z,3.87
2023-04-05T10:06:52.107Z,4.00
2023-04-05T10:09:21.280Z,3.93
2023-04-05T10:11:51.319Z,3.67
2023-04-05T10:14:20.169Z,4.33
2023-04-05T10:17:05.501Z,5.43
2023-04-05T10:19:52.110Z,5.93
2023-04-05T10:22:29.522Z,5.90
2023-04-05T10:25:06.949Z,4.33
2023-04-05T10:27:47.196Z,4.63
2023-04-05T10:30:18.004Z,4.93
2023-04-05T10:33:11.751Z,4.17
2023-04-05T10:36:08.432Z,4.27
2023-04-05T10:39:05.520Z,4.60
2023-04-05T10:42:12.789Z,5.50
2023-04-05T10:44:50.744Z,4.73
2023-04-05T10:47:55.617Z,5.17
2023-04-05T10:50:26.505Z,4.47
2023-04-05T10:53:48.035Z,4.00
2023-04-05T10:56:19.864Z,4.30
2023-04-05T10:58:51.230Z,4.37
2023-04-05T11:01:23.036Z,4.27
2023-04-05T11:03:55.829Z,4.60
2023-04-05T11:06:32.469Z,4.30
2023-04-05T11:09:12.370Z,4.50
2023-04-05T11:11:45.638Z,4.80
2023-04-05T11:14:21.978Z,4.90
2023-04-05T11:16:56.434Z,4.60
2023-04-05T11:19:52.251Z,4.87
2023-04-05T11:22:29.487Z,4.60
2023-04-05T11:25:02.975Z,4.57
2023-04-05T11:27:33.195Z,5.10
2023-04-05T11:30:03.455Z,4.60
2023-04-05T11:32:43.868Z,5.03
2023-04-05T11:35:17.806Z,4.80
2023-04-05T11:37:58.765Z,5.70
2023-04-05T11:40:30.002Z,4.37
2023-04-05T11:43:05.969Z,4.63
2023-04-05T11:45:35.620Z,5.10
2023-04-05T11:48:09.494Z,4.90
2023-04-05T11:50:41.819Z,5.30
2023-04-05T11:53:12.503Z,5.27
2023-04-05T11:55:43.341Z,4.70
2023-04-05T11:58:17.173Z,4.87
2023-04-05T12:00:47.861Z,5.10
2023-04-05T12:03:18.499Z,5.80
2023-04-05T12:05:49.210Z,5.80
2023-04-05T12:08:18.346Z,5.23
2023-04-05T12:10:54.186Z,5.63
2023-04-05T12:13:29.360Z,5.53
2023-04-05T12:16:00.603Z,5.70
2023-04-05T12:18:33.153Z,6.00
2023-04-05T12:21:06.467Z,6.03
2023-04-05T12:23:37.329Z,6.57
2023-04-05T12:26:08.860Z,5.20
2023-04-05T12:28:53.977Z,5.33
2023-04-05T12:31:40.219Z,5.77
2023-04-05T12:34:11.205Z,5.90
2023-04-05T12:36:44.618Z,5.80
2023-04-05T12:39:13.162Z,5.43
2023-04-05T12:41:43.063Z,5.37
2023-04-05T12:44:16.488Z,5.27
2023-04-05T12:46:47.022Z,4.80
2023-04-05T12:49:18.482Z,5.03
2023-04-05T12:51:48.363Z,4.87
2023-04-05T12:54:23.227Z,5.23
2023-04-05T12:56:53.055Z,5.33
2023-04-05T12:59:21.954Z,5.50
2023-04-05T13:01:51.357Z,6.17
2023-04-05T13:04:23.253Z,6.77
2023-04-05T13:06:51.884Z,5.50
2023-04-05T13:09:20.365Z,6.17
2023-04-05T13:11:48.884Z,6.33
2023-04-05T13:14:18.027Z,6.47
2023-04-05T13:16:46.516Z,5.83
2023-04-05T13:19:14.960Z,5.77
2023-04-05T13:21:44.908Z,5.47
2023-04-05T13:24:13.418Z,6.33
2023-04-05T13:27:00.658Z,6.17
2023-04-05T13:29:30.893Z,6.00
2023-04-05T13:32:01.726Z,6.17
2023-04-05T13:34:30.220Z,6.70
2023-04-05T13:37:00.052Z,6.60
2023-04-05T13:39:28.468Z,7.40
2023-04-05T13:41:57.294Z,6.73
2023-04-05T13:44:25.928Z,6.33
2023-04-05T13:46:54.374Z,5.43
2023-04-05T13:49:47.951Z,7.17
2023-04-05T13:52:18.102Z,5.77
2023-04-05T13:54:46.579Z,6.57
2023-04-05T13:57:15.504Z,7.00
2023-04-05T13:59:44.029Z,6.03
2023-04-05T14:02:12.751Z,6.40
2023-04-05T14:04:41.424Z,6.77
2023-04-05T14:07:09.828Z,6.57
2023-04-05T14:10:29.684Z,8.10
2023-04-05T14:13:01.267Z,7.50
2023-04-05T14:15:30.018Z,6.60
2023-04-05T14:17:58.550Z,7.23
2023-04-05T14:20:27.325Z,8.07
2023-04-05T14:22:56.195Z,7.70
2023-04-05T14:25:24.695Z,7.43
2023-04-05T14:27:54.565Z,7.10
2023-04-05T14:30:24.079Z,7.03
2023-04-05T14:32:52.744Z,6.57
2023-04-05T14:35:21.321Z,7.00
2023-04-05T14:37:49.854Z,6.93
2023-04-05T14:40:18.793Z,7.50
2023-04-05T14:42:49.897Z,7.43
2023-04-05T14:45:20.220Z,7.00
2023-04-05T14:47:48.739Z,7.73
2023-04-05T14:50:17.510Z,7.57
2023-04-05T14:52:46.569Z,8.33
2023-04-05T14:55:16.609Z,8.50
2023-04-05T14:57:45.236Z,7.37
2023-04-05T15:00:15.531Z,8.50
2023-04-05T15:02:50.804Z,7.57
2023-04-05T15:05:20.005Z,8.30
2023-04-05T15:07:48.505Z,7.97
2023-04-05T15:10:18.472Z,8.03
2023-04-05T15:12:47.041Z,8.83
2023-04-05T15:15:18.805Z,9.07
2023-04-05T15:17:47.375Z,8.17
2023-04-05T15:20:17.502Z,8.50
2023-04-05T15:23:16.871Z,8.33
2023-04-05T15:25:46.088Z,8.53
2023-04-05T15:28:16.984Z,8.10
2023-04-05T15:30:45.975Z,8.13
2023-04-05T15:33:14.557Z,8.23
2023-04-05T15:35:44.464Z,7.93
2023-04-05T15:38:13.008Z,9.10
2023-04-05T15:40:41.610Z,8.70
2023-04-05T15:43:11.305Z,8.70
2023-04-05T15:45:39.843Z,9.03
2023-04-05T15:48:08.375Z,8.80
2023-04-05T15:50:39.708Z,9.17
2023-04-05T15:53:10.285Z,8.20
2023-04-05T15:56:07.737Z,8.27
2023-04-05T15:58:37.129Z,8.70
2023-04-05T16:01:06.520Z,7.80
2023-04-05T16:03:35.190Z,7.77
2023-04-05T16:06:03.960Z,8.73
2023-04-05T16:08:34.034Z,8.00
2023-04-05T16:11:02.738Z,7.63
2023-04-05T16:13:32.496Z,8.60
2023-04-05T16:16:01.081Z,7.63
2023-04-05T16:18:31.687Z,7.87
2023-04-05T16:21:00.230Z,8.43
2023-04-05T16:23:28.860Z,8.50
2023-04-05T16:25:58.765Z,9.40
2023-04-05T16:28:27.245Z,9.30
2023-04-05T16:30:56.080Z,9.20
2023-04-05T16:33:24.850Z,8.83
2023-04-05T16:35:53.710Z,8.00
2023-04-05T16:38:22.229Z,9.60
2023-04-05T16:41:17.124Z,9.07
2023-04-05T16:43:45.976Z,9.03
2023-04-05T16:46:14.687Z,12.00
2023-04-05T16:48:43.332Z,10.00
2023-04-05T16:51:12.879Z,9.20
2023-04-05T16:53:41.527Z,8.80
2023-04-05T16:56:10.065Z,9.17
2023-04-05T16:58:40.053Z,9.47
2023-04-05T17:01:08.580Z,8.97
2023-04-05T17:03:37.092Z,9.00
2023-04-05T17:06:06.448Z,9.83
2023-04-05T17:08:44.397Z,9.37
2023-04-05T17:11:12.956Z,10.43
2023-04-05T17:13:45.037Z,10.17
2023-04-05T17:16:13.761Z,9.87
2023-04-05T17:18:42.627Z,9.97
2023-04-05T17:21:20.986Z,9.23
2023-04-05T17:23:49.625Z,9.10
2023-04-05T17:26:34.903Z,9.83
2023-04-05T17:29:04.960Z,10.60
2023-04-05T17:31:38.810Z,8.43
2023-04-05T17:34:08.491Z,10.57
2023-04-05T17:37:01.816Z,8.43
2023-04-05T17:39:42.399Z,8.90
2023-04-05T17:42:11.019Z,8.93
2023-04-05T17:44:41.414Z,8.70
2023-04-05T17:47:10.392Z,9.17
2023-04-05T17:49:38.962Z,8.97
2023-04-05T17:52:08.824Z,8.57
2023-04-05T17:54:38.057Z,8.63
2023-04-05T17:57:31.803Z,8.90
2023-04-05T18:00:01.723Z,9.73
2023-04-05T18:02:30.315Z,10.43
2023-04-05T18:04:58.935Z,10.63
2023-04-05T18:07:52.967Z,10.07
2023-04-05T18:10:23.555Z,10.53
2023-04-05T18:12:52.199Z,10.77
2023-04-05T18:15:22.177Z,10.07
2023-04-05T18:17:50.776Z,9.10
2023-04-05T18:20:19.748Z,8.83
2023-04-05T18:22:48.304Z,9.50
2023-04-05T18:25:18.997Z,9.30
2023-04-05T18:27:56.257Z,9.90
2023-04-05T18:30:26.217Z,10.03
2023-04-05T18:32:54.758Z,9.00
2023-04-05T18:35:23.323Z,8.93
2023-04-05T18:37:51.831Z,9.30
2023-04-05T18:40:20.956Z,9.73
2023-04-05T18:42:49.460Z,8.67
2023-04-05T18:45:18.219Z,9.77
2023-04-05T18:47:48.113Z,10.30
2023-04-05T18:50:17.012Z,9.07
2023-04-05T18:52:45.526Z,10.77
2023-04-05T18:55:15.843Z,9.57
2023-04-05T18:57:44.356Z,8.90
2023-04-05T19:00:14.152Z,8.37
2023-04-05T19:02:42.825Z,8.57
2023-04-05T19:05:13.183Z,8.90
2023-04-05T19:07:41.718Z,9.30
2023-04-05T19:10:14.207Z,9.57
2023-04-05T19:12:43.024Z,12.77
2023-04-05T19:15:12.270Z,10.43
2023-04-05T19:17:41.028Z,10.37
2023-04-05T19:20:36.252Z,9.03
2023-04-05T19:23:04.926Z,10.03
2023-04-05T19:25:33.416Z,9.53
2023-04-05T19:28:02.912Z,9.37
2023-04-05T19:30:31.412Z,8.83
2023-04-05T19:32:59.954Z,8.90
2023-04-05T19:35:33.340Z,8.03
2023-04-05T19:38:04.447Z,9.53
2023-04-05T19:40:33.717Z,9.50
2023-04-05T19:43:02.832Z,8.97
2023-04-05T19:45:43.537Z,9.20
2023-04-05T19:48:37.472Z,11.93
2023-04-05T19:51:08.103Z,10.03
2023-04-05T19:53:48.048Z,9.53
2023-04-05T19:56:21.735Z,10.33
2023-04-05T19:58:51.900Z,9.00
2023-04-05T20:01:42.695Z,8.93
2023-04-05T20:04:14.554Z,8.53
2023-04-05T20:06:47.592Z,8.90
2023-04-05T20:09:18.323Z,9.80
2023-04-05T20:11:54.764Z,9.47
2023-04-05T20:14:31.951Z,8.07
2023-04-05T20:17:00.821Z,9.37
2023-04-05T20:19:31.808Z,8.50
2023-04-05T20:22:02.447Z,9.20
2023-04-05T20:24:32.518Z,8.50
2023-04-05T20:27:08.826Z,8.57
2023-04-05T20:29:37.386Z,9.50
2023-04-05T20:32:07.301Z,8.07
2023-04-05T20:34:38.053Z,8.77
2023-04-05T20:37:11.177Z,9.70
2023-04-05T20:39:41.128Z,9.07
2023-04-05T20:42:11.314Z,8.50
2023-04-05T20:44:39.850Z,8.90
2023-04-05T20:47:08.418Z,9.33
2023-04-05T20:49:36.907Z,8.33
2023-04-05T20:52:11.811Z,8.13
2023-04-05T20:54:41.840Z,8.07
2023-04-05T20:57:10.394Z,8.57
2023-04-05T20:59:39.005Z,9.43
2023-04-05T21:02:07.675Z,11.37
2023-04-05T21:04:36.283Z,10.43
2023-04-05T21:07:04.864Z,10.27
2023-04-05T21:09:33.519Z,12.93
2023-04-05T21:12:04.117Z,11.17
2023-04-05T21:14:32.703Z,9.20
2023-04-05T21:17:01.277Z,10.07
2023-04-05T21:19:29.922Z,8.77
2023-04-05T21:21:58.487Z,9.00
2023-04-05T21:24:27.095Z,8.23
2023-04-05T21:26:56.469Z,9.37
2023-04-05T21:29:26.516Z,8.63
2023-04-05T21:31:55.126Z,7.90
2023-04-05T21:34:23.726Z,7.47
2023-04-05T21:36:52.226Z,9.00
2023-04-05T21:39:38.705Z,8.37
2023-04-05T21:42:07.264Z,8.90
2023-04-05T21:44:37.191Z,8.57
2023-04-05T21:47:05.974Z,10.13
2023-04-05T21:49:34.514Z,9.00
2023-04-05T21:52:03.006Z,9.30
2023-04-05T21:54:31.505Z,8.27
2023-04-05T21:57:00.123Z,8.50
2023-04-05T21:59:28.655Z,8.30
2023-04-05T22:01:58.633Z,7.77
2023-04-05T22:04:29.128Z,9.03
2023-04-05T22:06:57.718Z,7.87
2023-04-05T22:09:39.205Z,8.10
2023-04-05T22:12:07.992Z,7.77
2023-04-05T22:14:36.753Z,7.20
2023-04-05T22:17:06.759Z,7.93
2023-04-05T22:19:35.699Z,7.93
2023-04-05T22:22:04.213Z,7.70
2023-04-05T22:24:32.689Z,7.70
2023-04-05T22:27:01.779Z,7.70
2023-04-05T22:29:30.452Z,7.67
2023-04-05T22:31:59.230Z,8.33
2023-04-05T22:34:29.147Z,7.53
2023-04-05T22:36:57.629Z,7.77
2023-04-05T22:39:26.186Z,7.83
2023-04-05T22:41:54.754Z,9.37
2023-04-05T22:44:24.266Z,8.80
2023-04-05T22:46:53.167Z,8.63
2023-04-05T22:49:21.652Z,8.93
2023-04-05T22:51:57.703Z,9.43
2023-04-05T22:54:26.240Z,8.90
2023-04-05T22:56:54.737Z,8.43
2023-04-05T22:59:23.833Z,8.40
2023-04-05T23:01:52.519Z,8.70
2023-04-05T23:04:21.125Z,9.00
2023-04-05T23:06:49.643Z,8.93
2023-04-05T23:09:19.686Z,8.90
2023-04-05T23:11:49.531Z,11.43
2023-04-05T23:14:18.068Z,8.97
2023-04-05T23:16:46.545Z,8.60
2023-04-05T23:19:15.088Z,8.80
2023-04-05T23:21:43.691Z,10.10
2023-04-05T23:24:12.403Z,11.10
2023-04-05T23:26:42.270Z,10.07
2023-04-05T23:29:10.847Z,8.37
2023-04-05T23:31:39.505Z,8.83
2023-04-05T23:34:08.011Z,8.37
2023-04-05T23:36:36.522Z,8.50
2023-04-05T23:39:05.156Z,7.50
2023-04-05T23:41:33.779Z,7.63
2023-04-05T23:44:04.418Z,7.87
2023-04-05T23:46:32.981Z,6.97
2023-04-05T23:49:01.742Z,8.17
2023-04-05T23:51:30.347Z,7.67
2023-04-05T23:53:59.008Z,8.30
2023-04-05T23:56:27.666Z,7.80
2023-04-05T23:58:56.241Z,8.10
